Flight Track Log - Related Links

Times and Time Zones

All times are in EDT time to prevent confusion due to time zone crossing. See the SWA4145 flight status page for this flight to view local times or setup timezone preferences in your user account.

Time Position Orientation Groundspeed Altitude Reporting Facility
EDT Latitude Longitude Course Direction KTS MPH feet Rate Location/Type
Thu 09:42:29 AM 37.3333 -121.9000 134° Southeast 174 200 2,500  Level Northern Cal TRACON
Thu 09:43:10 AM 37.3169 -121.8783 134° Southeast 197 227 4,400 3,529 Climbing Oakland Center
Thu 09:44:11 AM 37.2636 -121.8150 137° Southeast 252 290 8,500 4,230 Climbing Oakland Center
Thu 09:45:12 AM 37.1906 -121.7289 137° Southeast 296 341 13,000 4,180 Climbing Oakland Center
Thu 09:46:13 AM 37.1178 -121.6453 137° Southeast 337 388 17,000 3,836 Climbing Oakland Center
Thu 09:47:14 AM 37.0394 -121.5572 138° Southeast 361 415 20,800 3,492 Climbing Oakland Center
Thu 09:48:15 AM 36.9594 -121.4650 137° Southeast 381 438 24,100 3,148 Climbing Oakland Center
Thu 09:50:17 AM 36.7881 -121.2681 137° Southeast 422 486 30,400 2,918 Climbing Oakland Center
Thu 09:51:18 AM 36.7033 -121.1683 137° Southeast 424 488 33,000 1,279 Climbing Oakland Center
Thu 09:52:19 AM 36.6172 -121.0714 138° Southeast 421 484 33,000  Level Oakland Center
Thu 09:53:19 AM 36.5328 -120.9753 138° Southeast 418 481 33,000  Level Oakland Center
Thu 09:54:20 AM 36.4489 -120.8778 137° Southeast 416 479 33,000  Level Oakland Center
Thu 09:55:21 AM 36.3647 -120.7828 138° Southeast 414 476 33,000  Level Oakland Center
Thu 09:56:22 AM 36.2811 -120.6861 137° Southeast 414 476 33,000  Level Oakland Center
Thu 09:57:23 AM 36.1958 -120.5931 139° Southeast 412 474 33,000  Level Oakland Center
Thu 09:58:24 AM 36.1117 -120.4969 137° Southeast 412 474 33,000  Level Oakland Center
Thu 09:59:25 AM 36.0272 -120.4022 138° Southeast 412 474 33,000  Level Oakland Center
Thu 10:00:26 AM 35.9250 -120.2886 138° Southeast 409 471 33,000  Level Oakland Center
Thu 10:01:27 AM 35.8397 -120.1944 138° Southeast 408 470 33,000  Level Oakland Center
Thu 10:02:28 AM 35.7550 -120.0986 137° Southeast 408 470 33,000 -344 Level Oakland Center
Thu 10:03:29 AM 35.6708 -120.0042 138° Southeast 407 468 32,300 -773 Descending Oakland Center
Thu 10:04:40 AM 35.5794 -119.9192 143° Southeast 405 466 31,300 -947 Descending Los Angeles Center
Thu 10:05:42 AM 35.4658 -119.8217 145° Southeast 407 468 30,200 -1,000 Descending Los Angeles Center
Thu 10:07:34 AM 35.2953 -119.6736 145° Southeast 415 478 28,400 -936 Descending Oakland Center
Thu 10:08:35 AM 35.1992 -119.5919 145° Southeast 418 481 27,500 -934 Descending Oakland Center
Thu 10:09:36 AM 35.1019 -119.5094 145° Southeast 419 482 26,500 -1,235 Descending Oakland Center
Thu 10:10:51 AM 34.9844 -119.4083 145° Southeast 425 489 24,700 -1,927 Descending Los Angeles Center
Thu 10:11:53 AM 34.8881 -119.3281 146° Southeast 424 488 22,100 -2,710 Descending Los Angeles Center
Thu 10:12:55 AM 34.7792 -119.2369 145° Southeast 400 460 19,100 -2,613 Descending Los Angeles Center
Thu 10:13:57 AM 34.6936 -119.1636 145° Southeast 383 441 16,700 -2,274 Descending Los Angeles Center
Thu 10:14:59 AM 34.6167 -119.0994 146° Southeast 370 426 14,400 -2,274 Descending Los Angeles Center
Thu 10:16:01 AM 34.5383 -119.0311 144° Southeast 347 399 12,000 -1,984 Descending Los Angeles Center
Thu 10:17:03 AM 34.4464 -118.9631 149° Southeast 310 357 10,300 -1,597 Descending Los Angeles Center
Thu 10:18:05 AM 34.3769 -118.9106 148° Southeast 298 343 8,700 -1,584 Descending Los Angeles Center
Thu 10:19:08 AM 34.3314 -118.8297 124° Southeast 284 327 7,000 -1,488 Descending Los Angeles Center
Thu 10:20:10 AM 34.2847 -118.7553 127° Southeast 280 322 5,600 -919 Descending Los Angeles Center
Thu 10:21:12 AM 34.2453 -118.6867 125° Southeast 263 303 5,100 -639 Descending Los Angeles Center
Thu 10:23:46 AM 34.2000 -118.5333 90° East 178 205 3,300 -710 Descending Southern California TRACON
Thu 10:24:18 AM 34.2003 -118.5042 89° East 182 209 2,900 -766 Descending Los Angeles Center
Thu 10:25:20 AM 34.2000 -118.4544 90° East 159 183 2,100 -645 Descending Los Angeles Center
Thu 10:27:24 AM 34.1992 -118.3697 91° East 125 144 900 -581 Descending Los Angeles Center
Thu 10:29:00 AM 34.2000 -118.3500 90° East  Level FlightAware Approximate
Thu 10:36:00 AM 34.2007 -118.3587 90° East  Level Estimated
Thu 10:37:00 AM 34.2000 -118.3500 90° East  Level FlightAware Approximate
Thu 10:38:00 AM 34.2007 -118.3587 90° East  Level Estimated
Thu 10:39:00 AM 34.2000 -118.3500 90° East  Level FlightAware Approximate
Thu 10:40:00 AM 34.2007 -118.3587 90° East  Level Estimated
Thu 10:41:00 AM 34.2000 -118.3500 90° East  Level FlightAware Approximate
Thu 10:42:00 AM 34.2007 -118.3587 90° East  Level Estimated
Thu 10:43:00 AM 34.2000 -118.3500 90° East  Level FlightAware Approximate
Thu 10:44:00 AM 34.2007 -118.3587 90° East  Level Estimated
Thu 10:45:00 AM 34.2000 -118.3500 90° East  Level FlightAware Approximate

Login

Don't have an account? Register now (free) for customized features, flight alerts, and more!